createdAt,value
2019-06-07T00:00:29.832Z,0.00
2019-06-07T00:01:09.542Z,0.00
2019-06-07T00:02:10.380Z,0.00
2019-06-07T00:03:13.875Z,0.00
2019-06-07T00:04:10.338Z,0.00
2019-06-07T00:05:10.052Z,0.00
2019-06-07T00:06:13.040Z,0.00
2019-06-07T00:07:10.273Z,0.00
2019-06-07T00:08:17.153Z,0.00
2019-06-07T00:09:10.493Z,0.00
2019-06-07T00:10:10.051Z,0.00
2019-06-07T00:11:11.090Z,0.00
2019-06-07T00:12:10.655Z,0.00
2019-06-07T00:13:09.763Z,0.00
2019-06-07T00:14:11.160Z,0.00
2019-06-07T00:15:11.684Z,0.00
2019-06-07T00:16:11.222Z,0.00
2019-06-07T00:17:12.494Z,0.00
2019-06-07T00:18:11.189Z,0.00
2019-06-07T00:19:09.651Z,0.00
2019-06-07T00:20:13.419Z,0.00
2019-06-07T00:21:10.027Z,0.00
2019-06-07T00:22:23.763Z,0.00
2019-06-07T00:23:11.364Z,0.00
2019-06-07T00:24:12.653Z,0.00
2019-06-07T00:25:12.408Z,0.00
2019-06-07T00:26:10.737Z,0.00
2019-06-07T00:27:10.195Z,0.00
2019-06-07T00:28:09.026Z,0.00
2019-06-07T00:29:09.309Z,0.00
2019-06-07T00:30:32.765Z,0.00
2019-06-07T00:31:09.095Z,0.00
2019-06-07T00:32:09.314Z,0.00
2019-06-07T00:33:10.977Z,0.00
2019-06-07T00:34:10.728Z,0.00
2019-06-07T00:35:09.271Z,0.00
2019-06-07T00:36:10.092Z,0.00
2019-06-07T00:37:11.186Z,0.00
2019-06-07T00:38:09.400Z,0.00
2019-06-07T00:39:10.660Z,0.00
2019-06-07T00:40:17.367Z,0.00
2019-06-07T00:41:10.046Z,0.00
2019-06-07T00:42:10.769Z,0.00
2019-06-07T00:43:13.372Z,0.00
2019-06-07T00:44:10.166Z,0.00
2019-06-07T00:45:10.929Z,0.00
2019-06-07T00:46:12.845Z,0.00
2019-06-07T00:47:09.058Z,0.00
2019-06-07T00:48:09.062Z,0.00
2019-06-07T00:49:09.054Z,0.00
2019-06-07T00:50:09.060Z,0.00
2019-06-07T00:51:09.060Z,0.00
2019-06-07T00:52:09.067Z,0.00
2019-06-07T00:53:16.819Z,0.00
2019-06-07T00:54:09.065Z,0.00
2019-06-07T00:55:09.071Z,0.00
2019-06-07T00:56:09.074Z,0.00
2019-06-07T00:57:09.070Z,0.00
2019-06-07T00:58:09.076Z,0.00
2019-06-07T00:59:11.625Z,0.00
2019-06-07T01:00:09.072Z,0.00
2019-06-07T01:01:09.078Z,0.00
2019-06-07T01:02:09.086Z,0.00
2019-06-07T01:03:09.081Z,0.00
2019-06-07T01:04:09.089Z,0.00
2019-06-07T01:05:09.082Z,0.00
2019-06-07T01:06:09.089Z,0.00
2019-06-07T01:07:09.090Z,0.00
2019-06-07T01:08:09.090Z,0.00
2019-06-07T01:09:09.096Z,0.00
2019-06-07T01:10:09.093Z,0.00
2019-06-07T01:11:09.114Z,0.00
2019-06-07T01:12:09.097Z,0.00
2019-06-07T01:13:09.097Z,0.00
2019-06-07T01:14:09.098Z,0.00
2019-06-07T01:15:09.100Z,0.00
2019-06-07T01:16:09.106Z,0.00
2019-06-07T01:17:23.598Z,0.00
2019-06-07T01:18:36.032Z,0.00
2019-06-07T01:19:09.104Z,0.00
2019-06-07T01:20:09.106Z,0.00
2019-06-07T01:21:09.113Z,0.00
2019-06-07T01:22:09.108Z,0.00
2019-06-07T01:23:51.970Z,0.00
2019-06-07T01:24:12.324Z,0.00
2019-06-07T01:25:09.115Z,0.00
2019-06-07T01:26:09.117Z,0.00
2019-06-07T01:27:09.130Z,0.00
2019-06-07T01:28:09.124Z,0.00
2019-06-07T01:29:09.124Z,0.00
2019-06-07T01:30:09.121Z,0.00
2019-06-07T01:31:09.124Z,0.00
2019-06-07T01:32:09.126Z,0.00
2019-06-07T01:33:09.127Z,0.00
2019-06-07T01:34:09.127Z,0.00
2019-06-07T01:35:09.133Z,0.00
2019-06-07T01:36:09.134Z,0.00
2019-06-07T01:37:09.132Z,0.00
2019-06-07T01:38:09.138Z,0.00
2019-06-07T01:39:09.140Z,0.00
2019-06-07T01:40:09.199Z,0.00
2019-06-07T01:41:09.138Z,0.00
2019-06-07T01:42:09.140Z,0.00
2019-06-07T01:43:09.140Z,0.00
2019-06-07T01:44:09.149Z,0.00
2019-06-07T01:45:09.160Z,0.00
2019-06-07T01:46:09.143Z,0.00
2019-06-07T01:47:09.148Z,0.00
2019-06-07T01:48:09.151Z,0.00
2019-06-07T01:49:09.148Z,0.00
2019-06-07T01:50:09.153Z,0.00
2019-06-07T01:51:09.155Z,0.00
2019-06-07T01:52:09.157Z,0.00
2019-06-07T01:53:09.157Z,0.00
2019-06-07T01:55:09.161Z,0.00
2019-06-07T01:56:09.164Z,0.00
2019-06-07T01:57:30.502Z,0.00
2019-06-07T01:58:09.163Z,0.00
2019-06-07T01:59:09.171Z,0.00
2019-06-07T02:00:09.189Z,0.00
2019-06-07T02:01:09.167Z,0.00
2019-06-07T02:02:09.172Z,0.00
2019-06-07T02:03:09.174Z,0.00
2019-06-07T02:04:09.173Z,0.00
2019-06-07T02:05:09.174Z,0.00
2019-06-07T02:06:09.175Z,0.00
2019-06-07T02:07:09.180Z,0.00
2019-06-07T02:08:09.176Z,0.00
2019-06-07T02:09:09.176Z,0.00
2019-06-07T02:10:09.182Z,4.00
2019-06-07T02:11:09.180Z,4.00
2019-06-07T02:12:25.133Z,4.00
2019-06-07T02:13:09.187Z,4.00
2019-06-07T02:14:09.185Z,4.00
2019-06-07T02:15:09.197Z,0.00
2019-06-07T02:16:09.188Z,4.00
2019-06-07T02:17:09.230Z,4.00
2019-06-07T02:18:09.197Z,4.00
2019-06-07T02:19:09.196Z,4.00
2019-06-07T02:20:09.202Z,4.00
2019-06-07T02:21:09.198Z,8.00
2019-06-07T02:22:09.196Z,8.00
2019-06-07T02:23:09.198Z,4.00
2019-06-07T02:24:09.246Z,8.00
2019-06-07T02:26:09.205Z,8.00
2019-06-07T02:27:09.209Z,12.00
2019-06-07T02:28:27.554Z,12.00
2019-06-07T02:29:09.214Z,12.00
2019-06-07T02:30:36.977Z,12.00
2019-06-07T02:31:09.222Z,12.00
2019-06-07T02:32:09.220Z,16.00
2019-06-07T02:33:09.213Z,16.00
2019-06-07T02:34:09.226Z,20.00
2019-06-07T02:35:09.219Z,24.00
2019-06-07T02:36:09.215Z,24.00
2019-06-07T02:37:09.217Z,28.00
2019-06-07T02:38:09.222Z,28.00
2019-06-07T02:39:09.232Z,32.00
2019-06-07T02:40:09.245Z,36.00
2019-06-07T02:41:09.226Z,36.00
2019-06-07T02:42:09.251Z,44.00
2019-06-07T02:43:09.237Z,48.00
2019-06-07T02:44:09.245Z,52.00
2019-06-07T02:45:10.838Z,52.00
2019-06-07T02:46:25.372Z,56.00
2019-06-07T02:47:09.230Z,56.00
2019-06-07T02:48:09.242Z,60.00
2019-06-07T02:49:09.239Z,68.00
2019-06-07T02:50:09.238Z,72.00
2019-06-07T02:51:09.243Z,76.00
2019-06-07T02:52:09.242Z,80.00
2019-06-07T02:53:09.245Z,84.00
2019-06-07T02:54:09.244Z,92.00
2019-06-07T02:55:09.255Z,96.00
2019-06-07T02:56:37.758Z,100.00
2019-06-07T02:57:09.250Z,104.00
2019-06-07T02:58:09.253Z,112.00
2019-06-07T02:59:09.251Z,116.00
2019-06-07T03:00:40.398Z,124.00
2019-06-07T03:01:10.086Z,128.00
2019-06-07T03:02:09.252Z,140.00
2019-06-07T03:03:09.254Z,144.00
2019-06-07T03:04:09.258Z,148.00
2019-06-07T03:05:09.255Z,156.00
2019-06-07T03:06:09.266Z,164.00
2019-06-07T03:07:09.263Z,172.00
2019-06-07T03:08:09.261Z,184.00
2019-06-07T03:09:09.295Z,192.00
2019-06-07T03:10:09.261Z,204.00
2019-06-07T03:11:09.273Z,220.00
2019-06-07T03:12:09.268Z,236.00
2019-06-07T03:13:09.267Z,252.00
2019-06-07T03:14:09.271Z,260.00
2019-06-07T03:15:09.274Z,268.00
2019-06-07T03:16:09.282Z,276.00
2019-06-07T03:17:09.274Z,288.00
2019-06-07T03:18:09.274Z,304.00
2019-06-07T03:19:09.282Z,324.00
2019-06-07T03:20:09.281Z,348.00
2019-06-07T03:21:09.278Z,368.00
2019-06-07T03:22:09.281Z,388.00
2019-06-07T03:23:09.312Z,412.00
2019-06-07T03:24:09.279Z,420.00
2019-06-07T03:25:09.287Z,440.00
2019-06-07T03:26:09.282Z,444.00
2019-06-07T03:28:09.287Z,444.00
2019-06-07T03:29:09.293Z,440.00
2019-06-07T03:30:36.199Z,444.00
2019-06-07T03:31:09.294Z,452.00
2019-06-07T03:32:09.294Z,460.00
2019-06-07T03:33:09.294Z,468.00
2019-06-07T03:34:09.328Z,468.00
2019-06-07T03:35:09.298Z,496.00
2019-06-07T03:36:23.295Z,548.00
2019-06-07T03:37:09.305Z,584.00
2019-06-07T03:38:09.301Z,608.00
2019-06-07T03:39:09.305Z,628.00
2019-06-07T03:40:09.306Z,624.00
2019-06-07T03:41:09.307Z,616.00
2019-06-07T03:42:09.309Z,648.00
2019-06-07T03:43:09.306Z,664.00
2019-06-07T03:44:09.315Z,688.00
2019-06-07T03:45:09.315Z,704.00
2019-06-07T03:46:09.313Z,748.00
2019-06-07T03:47:09.332Z,808.00
2019-06-07T03:48:09.315Z,840.00
2019-06-07T03:49:09.316Z,892.00
2019-06-07T03:50:09.328Z,892.00
2019-06-07T03:51:24.218Z,908.00
2019-06-07T03:52:09.319Z,920.00
2019-06-07T03:53:09.320Z,916.00
2019-06-07T03:54:09.319Z,952.00
2019-06-07T03:55:09.321Z,1004.00
2019-06-07T03:56:09.598Z,1036.00
2019-06-07T03:57:09.327Z,1084.00
2019-06-07T03:59:09.329Z,1180.00
2019-06-07T04:00:09.327Z,1240.00
2019-06-07T04:01:09.332Z,1284.00
2019-06-07T04:02:09.333Z,1228.00
2019-06-07T04:03:09.337Z,1132.00
2019-06-07T04:04:09.339Z,1036.00
2019-06-07T04:05:09.337Z,968.00
2019-06-07T04:06:09.343Z,932.00
2019-06-07T04:07:09.339Z,896.00
2019-06-07T04:08:09.341Z,888.00
2019-06-07T04:09:09.343Z,880.00
2019-06-07T04:10:09.342Z,928.00
2019-06-07T04:11:09.348Z,908.00
2019-06-07T04:12:09.348Z,896.00
2019-06-07T04:13:09.347Z,956.00
2019-06-07T04:14:09.350Z,968.00
2019-06-07T04:15:09.353Z,968.00
2019-06-07T04:16:09.382Z,980.00
2019-06-07T04:17:09.354Z,1000.00
2019-06-07T04:18:09.353Z,1048.00
2019-06-07T04:19:09.355Z,1036.00
2019-06-07T04:20:09.358Z,964.00
2019-06-07T04:21:09.357Z,960.00
2019-06-07T04:22:09.395Z,988.00
2019-06-07T04:23:27.197Z,1016.00
2019-06-07T04:24:09.366Z,1084.00
2019-06-07T04:25:09.364Z,1096.00
2019-06-07T04:26:09.363Z,1076.00
2019-06-07T04:27:09.365Z,1052.00
2019-06-07T04:28:09.362Z,1032.00
2019-06-07T04:29:32.175Z,1040.00
2019-06-07T04:30:09.374Z,1028.00
2019-06-07T04:31:09.375Z,1028.00
2019-06-07T04:32:09.377Z,1036.00
2019-06-07T04:33:09.382Z,1076.00
2019-06-07T04:34:09.378Z,1112.00
2019-06-07T04:35:09.428Z,1096.00
2019-06-07T04:36:09.378Z,1108.00
2019-06-07T04:37:09.375Z,1144.00
2019-06-07T04:38:09.384Z,1136.00
2019-06-07T04:39:09.382Z,1124.00
2019-06-07T04:40:09.381Z,1092.00
2019-06-07T04:41:09.386Z,1076.00
2019-06-07T04:42:09.386Z,1068.00
2019-06-07T04:43:09.386Z,1076.00
2019-06-07T04:44:09.392Z,1132.00
2019-06-07T04:45:32.523Z,1216.00
2019-06-07T04:46:09.395Z,1280.00
2019-06-07T04:47:09.397Z,1320.00
2019-06-07T04:48:09.402Z,1340.00
2019-06-07T04:49:09.398Z,1348.00
2019-06-07T04:50:09.395Z,1360.00
2019-06-07T04:51:09.466Z,1380.00
2019-06-07T04:52:09.401Z,1404.00
2019-06-07T04:53:09.399Z,1408.00
2019-06-07T04:54:09.401Z,1412.00
2019-06-07T04:56:09.415Z,1432.00
2019-06-07T04:57:09.406Z,1448.00
2019-06-07T04:58:09.405Z,1448.00
2019-06-07T04:59:09.411Z,1452.00
2019-06-07T05:00:46.179Z,1452.00
2019-06-07T05:01:26.206Z,1452.00
2019-06-07T05:02:09.418Z,1472.00
2019-06-07T05:03:09.471Z,1520.00
2019-06-07T05:04:09.423Z,1500.00
2019-06-07T05:05:10.314Z,1504.00
2019-06-07T05:06:09.427Z,1512.00
2019-06-07T05:07:09.421Z,1528.00
2019-06-07T05:08:27.030Z,1592.00
2019-06-07T05:09:09.420Z,1636.00
2019-06-07T05:10:09.435Z,1620.00
2019-06-07T05:11:09.432Z,1624.00
2019-06-07T05:12:09.453Z,1632.00
2019-06-07T05:13:09.430Z,1640.00
2019-06-07T05:14:09.433Z,1656.00
2019-06-07T05:15:09.436Z,1708.00
2019-06-07T05:16:09.432Z,1792.00
2019-06-07T05:17:09.437Z,2120.00
2019-06-07T05:18:09.436Z,2268.00
2019-06-07T05:19:09.441Z,2240.00
2019-06-07T05:20:09.440Z,2048.00
2019-06-07T05:21:09.451Z,1880.00
2019-06-07T05:22:09.445Z,1796.00
2019-06-07T05:23:09.441Z,1744.00
2019-06-07T05:24:10.820Z,1708.00
2019-06-07T05:25:09.452Z,1720.00
2019-06-07T05:26:09.449Z,1752.00
2019-06-07T05:27:09.457Z,1780.00
2019-06-07T05:28:09.453Z,1820.00
2019-06-07T05:29:09.454Z,1832.00
2019-06-07T05:30:36.632Z,1852.00
2019-06-07T05:31:09.468Z,1844.00
2019-06-07T05:32:09.515Z,1844.00
2019-06-07T05:33:09.454Z,1848.00
2019-06-07T05:34:09.460Z,1856.00
2019-06-07T05:35:09.482Z,1852.00
2019-06-07T05:36:09.460Z,1840.00
2019-06-07T05:37:12.092Z,1836.00
2019-06-07T05:38:09.495Z,1840.00
2019-06-07T05:39:09.464Z,1856.00
2019-06-07T05:40:09.727Z,1880.00
2019-06-07T05:41:09.470Z,1900.00
2019-06-07T05:42:09.470Z,1912.00
2019-06-07T05:43:09.470Z,1928.00
2019-06-07T05:44:13.142Z,1956.00
2019-06-07T05:45:09.474Z,1992.00
2019-06-07T05:46:09.478Z,2036.00
2019-06-07T05:47:09.476Z,2080.00
2019-06-07T05:48:09.479Z,2116.00
2019-06-07T05:49:09.477Z,2164.00
2019-06-07T05:50:38.097Z,2216.00
2019-06-07T05:51:09.482Z,2256.00
2019-06-07T05:52:09.482Z,2276.00
2019-06-07T05:53:09.491Z,2280.00
2019-06-07T05:54:09.488Z,2280.00
2019-06-07T05:55:09.511Z,2284.00
2019-06-07T05:56:09.496Z,2300.00
2019-06-07T05:57:09.494Z,2320.00
2019-06-07T05:58:09.494Z,2348.00
2019-06-07T05:59:09.521Z,2392.00
2019-06-07T06:00:09.620Z,2424.00
2019-06-07T06:02:22.259Z,2472.00
2019-06-07T06:03:09.505Z,2500.00
2019-06-07T06:04:09.502Z,2520.00
2019-06-07T06:05:09.503Z,2520.00
2019-06-07T06:06:09.508Z,2540.00
2019-06-07T06:07:09.510Z,2588.00
2019-06-07T06:08:09.510Z,2636.00
2019-06-07T06:09:13.774Z,2664.00
2019-06-07T06:10:09.514Z,2672.00
2019-06-07T06:11:09.532Z,2688.00
2019-06-07T06:12:09.521Z,2720.00
2019-06-07T06:13:09.524Z,2756.00
2019-06-07T06:14:09.562Z,2796.00
2019-06-07T06:15:09.518Z,2848.00
2019-06-07T06:16:09.522Z,2904.00
2019-06-07T06:17:09.525Z,2976.00
2019-06-07T06:18:09.528Z,3036.00
2019-06-07T06:19:09.524Z,3084.00
2019-06-07T06:20:09.528Z,3100.00
2019-06-07T06:21:19.110Z,3108.00
2019-06-07T06:22:09.530Z,3132.00
2019-06-07T06:23:09.534Z,3152.00
2019-06-07T06:24:09.541Z,3168.00
2019-06-07T06:25:31.570Z,3172.00
2019-06-07T06:26:09.538Z,2952.00
2019-06-07T06:27:41.432Z,3244.00
2019-06-07T06:28:12.409Z,3288.00
2019-06-07T06:29:09.545Z,3324.00
2019-06-07T06:30:09.545Z,3396.00
2019-06-07T06:31:09.548Z,3508.00
2019-06-07T06:32:41.259Z,3616.00
2019-06-07T06:33:27.086Z,3692.00
2019-06-07T06:34:09.555Z,3708.00
2019-06-07T06:35:09.568Z,3728.00
2019-06-07T06:36:09.555Z,3764.00
2019-06-07T06:37:09.563Z,3772.00
2019-06-07T06:38:09.563Z,3768.00
2019-06-07T06:39:09.562Z,3784.00
2019-06-07T06:40:09.566Z,3800.00
2019-06-07T06:41:15.684Z,3792.00
2019-06-07T06:42:09.569Z,3776.00
2019-06-07T06:43:09.569Z,3752.00
2019-06-07T06:44:09.577Z,3732.00
2019-06-07T06:45:09.572Z,3716.00
2019-06-07T06:46:09.571Z,3728.00
2019-06-07T06:47:09.582Z,3752.00
2019-06-07T06:48:09.578Z,3768.00
2019-06-07T06:49:09.579Z,3764.00
2019-06-07T06:50:09.579Z,3752.00
2019-06-07T06:51:09.583Z,3732.00
2019-06-07T06:52:09.589Z,3728.00
2019-06-07T06:53:09.589Z,3724.00
2019-06-07T06:54:09.593Z,3724.00
2019-06-07T06:55:09.590Z,3720.00
2019-06-07T06:56:09.601Z,3724.00
2019-06-07T06:57:19.604Z,3736.00
2019-06-07T06:58:09.595Z,3744.00
2019-06-07T06:59:41.170Z,3756.00
2019-06-07T07:00:09.603Z,3776.00
2019-06-07T07:01:09.605Z,3796.00
2019-06-07T07:02:09.605Z,3824.00
2019-06-07T07:03:47.627Z,3844.00
2019-06-07T07:04:12.937Z,3872.00
2019-06-07T07:05:09.611Z,3896.00
2019-06-07T07:06:25.353Z,3896.00
2019-06-07T07:07:09.615Z,3884.00
2019-06-07T07:08:09.624Z,3868.00
2019-06-07T07:09:09.616Z,3864.00
2019-06-07T07:10:09.678Z,3884.00
2019-06-07T07:11:09.629Z,3916.00
2019-06-07T07:12:12.707Z,3956.00
2019-06-07T07:13:09.625Z,3988.00
2019-06-07T07:14:09.627Z,4020.00
2019-06-07T07:15:09.659Z,4052.00
2019-06-07T07:16:09.644Z,4076.00
2019-06-07T07:17:09.635Z,4092.00
2019-06-07T07:18:09.648Z,4088.00
2019-06-07T07:19:09.641Z,4092.00
2019-06-07T07:20:09.646Z,4104.00
2019-06-07T07:21:09.646Z,4128.00
2019-06-07T07:22:09.652Z,4168.00
2019-06-07T07:23:09.650Z,4204.00
2019-06-07T07:24:21.259Z,4228.00
2019-06-07T07:25:09.656Z,4264.00
2019-06-07T07:26:09.657Z,4324.00
2019-06-07T07:27:09.660Z,4388.00
2019-06-07T07:28:09.662Z,4444.00
2019-06-07T07:29:09.659Z,4492.00
2019-06-07T07:30:36.222Z,4516.00
2019-06-07T07:31:09.672Z,4540.00
2019-06-07T07:32:09.679Z,4556.00
2019-06-07T07:33:09.671Z,4572.00
2019-06-07T07:34:34.653Z,4596.00
2019-06-07T07:35:09.679Z,4628.00
2019-06-07T07:36:28.064Z,4660.00
2019-06-07T07:37:09.679Z,4664.00
2019-06-07T07:38:09.685Z,4704.00
2019-06-07T07:39:09.753Z,4772.00
2019-06-07T07:40:55.524Z,4824.00
2019-06-07T07:41:15.654Z,4840.00
2019-06-07T07:42:20.835Z,4872.00
2019-06-07T07:43:09.697Z,4936.00
2019-06-07T07:44:10.021Z,5000.00
2019-06-07T07:45:09.701Z,5028.00
2019-06-07T07:46:28.631Z,2476.00
2019-06-07T07:47:09.711Z,2500.00
2019-06-07T07:48:17.651Z,2524.00
2019-06-07T07:49:09.713Z,2552.00
2019-06-07T07:50:09.717Z,2572.00
2019-06-07T07:51:09.720Z,2372.00
2019-06-07T07:52:09.724Z,2232.00
2019-06-07T07:53:09.723Z,2744.00
2019-06-07T07:54:11.111Z,2316.00
2019-06-07T07:55:09.817Z,3444.00
2019-06-07T07:56:09.745Z,3476.00
2019-06-07T07:57:09.735Z,3356.00
2019-06-07T07:58:09.744Z,3540.00
2019-06-07T07:59:09.810Z,3548.00
2019-06-07T08:00:48.529Z,3288.00
2019-06-07T08:01:11.245Z,3136.00
2019-06-07T08:02:09.749Z,3732.00
2019-06-07T08:03:09.755Z,3740.00
2019-06-07T08:04:09.764Z,3744.00
2019-06-07T08:05:22.676Z,3432.00
2019-06-07T08:06:09.759Z,3300.00
2019-06-07T08:07:09.767Z,2108.00
2019-06-07T08:08:09.765Z,2568.00
2019-06-07T08:09:09.774Z,3536.00
2019-06-07T08:10:09.772Z,3512.00
2019-06-07T08:11:09.789Z,3332.00
2019-06-07T08:12:09.777Z,3448.00
2019-06-07T08:13:26.367Z,3440.00
2019-06-07T08:14:09.782Z,3496.00
2019-06-07T08:15:09.797Z,3532.00
2019-06-07T08:16:16.126Z,3540.00
2019-06-07T08:17:09.795Z,3524.00
2019-06-07T08:18:09.873Z,3472.00
2019-06-07T08:19:09.824Z,2304.00
2019-06-07T08:20:09.807Z,2160.00
2019-06-07T08:21:24.412Z,3620.00
2019-06-07T08:22:09.811Z,3608.00
2019-06-07T08:23:09.812Z,3592.00
2019-06-07T08:24:09.817Z,3572.00
2019-06-07T08:25:09.821Z,3600.00
2019-06-07T08:26:09.824Z,3608.00
2019-06-07T08:27:25.369Z,3632.00
2019-06-07T08:28:09.828Z,3656.00
2019-06-07T08:29:09.839Z,3756.00
2019-06-07T08:30:46.403Z,3788.00
2019-06-07T08:31:09.843Z,3808.00
2019-06-07T08:32:09.842Z,4108.00
2019-06-07T08:33:25.352Z,4432.00
2019-06-07T08:34:09.902Z,4332.00
2019-06-07T08:35:09.851Z,4264.00
2019-06-07T08:36:19.995Z,4024.00
2019-06-07T08:37:09.860Z,3972.00
2019-06-07T08:38:29.810Z,4008.00
2019-06-07T08:39:09.865Z,4040.00
2019-06-07T08:40:09.874Z,4080.00
2019-06-07T08:41:12.270Z,4072.00
2019-06-07T08:42:17.601Z,4104.00
2019-06-07T08:43:19.887Z,4148.00
2019-06-07T08:44:22.923Z,4204.00
2019-06-07T08:45:09.887Z,4192.00
2019-06-07T08:46:09.940Z,4196.00
2019-06-07T08:47:19.943Z,4304.00
2019-06-07T08:48:27.007Z,4384.00
2019-06-07T08:49:09.902Z,4432.00
2019-06-07T08:50:09.907Z,4672.00
2019-06-07T08:51:09.912Z,4832.00
2019-06-07T08:52:12.176Z,5096.00
2019-06-07T08:53:12.123Z,5260.00
2019-06-07T08:54:22.177Z,5352.00
2019-06-07T08:55:09.927Z,5316.00
2019-06-07T08:56:11.392Z,5068.00
2019-06-07T08:57:20.759Z,5016.00
2019-06-07T08:58:09.934Z,5068.00
2019-06-07T08:59:11.479Z,3412.00
2019-06-07T09:00:42.353Z,3456.00
2019-06-07T09:01:09.972Z,3676.00
2019-06-07T09:02:22.874Z,3972.00
2019-06-07T09:03:09.970Z,4056.00
2019-06-07T09:04:11.279Z,4292.00
2019-06-07T09:05:12.275Z,4520.00
2019-06-07T09:06:53.872Z,4424.00
2019-06-07T09:07:19.181Z,4096.00
2019-06-07T09:08:28.689Z,3980.00
2019-06-07T09:09:09.979Z,4092.00
2019-06-07T09:10:14.117Z,4264.00
2019-06-07T09:11:11.230Z,4188.00
2019-06-07T09:12:11.233Z,4320.00
2019-06-07T09:13:11.684Z,4904.00
2019-06-07T09:14:09.999Z,6800.00
2019-06-07T09:15:20.948Z,6852.00
2019-06-07T09:16:10.369Z,5804.00
2019-06-07T09:17:12.478Z,4388.00
2019-06-07T09:18:38.017Z,4188.00
2019-06-07T09:19:10.862Z,4100.00
2019-06-07T09:20:33.890Z,4452.00
2019-06-07T09:21:10.164Z,4616.00
2019-06-07T09:22:11.475Z,4540.00
2019-06-07T09:23:16.863Z,6380.00
2019-06-07T09:24:11.597Z,5544.00
2019-06-07T09:25:20.014Z,4972.00
2019-06-07T09:26:17.658Z,4488.00
2019-06-07T09:27:10.466Z,4436.00
2019-06-07T09:28:18.704Z,4308.00
2019-06-07T09:29:12.026Z,4224.00
2019-06-07T09:30:16.301Z,3844.00
2019-06-07T09:31:12.575Z,5076.00
2019-06-07T09:32:15.692Z,3804.00
2019-06-07T09:33:10.094Z,3820.00
2019-06-07T09:34:14.322Z,3728.00
2019-06-07T09:35:16.878Z,3860.00
2019-06-07T09:36:12.989Z,4212.00
2019-06-07T09:38:02.747Z,4472.00
2019-06-07T09:38:23.629Z,4644.00
2019-06-07T09:39:12.475Z,4612.00
2019-06-07T09:40:21.649Z,4672.00
2019-06-07T09:41:10.116Z,4596.00
2019-06-07T09:42:12.565Z,4536.00
2019-06-07T09:44:24.177Z,5384.00
2019-06-07T09:45:13.778Z,4484.00
2019-06-07T09:46:14.864Z,4236.00
2019-06-07T09:47:30.230Z,5396.00
2019-06-07T09:48:15.871Z,6804.00
2019-06-07T09:49:19.146Z,5704.00
2019-06-07T09:50:12.441Z,6020.00
2019-06-07T09:51:19.214Z,7404.00
2019-06-07T09:52:11.106Z,7724.00
2019-06-07T09:53:22.007Z,7648.00
2019-06-07T09:54:11.509Z,6452.00
2019-06-07T09:55:22.783Z,5960.00
2019-06-07T09:56:12.214Z,6984.00
2019-06-07T09:57:16.707Z,6836.00
2019-06-07T09:58:48.697Z,6748.00
2019-06-07T09:59:12.823Z,7624.00
2019-06-07T10:00:36.809Z,7516.00
2019-06-07T10:01:13.492Z,7828.00
2019-06-07T10:02:13.662Z,8068.00
2019-06-07T10:03:20.594Z,7668.00
2019-06-07T10:04:28.061Z,6736.00
2019-06-07T10:05:13.971Z,7076.00
2019-06-07T10:06:13.670Z,6776.00
2019-06-07T10:07:28.600Z,6604.00
2019-06-07T10:08:40.982Z,6960.00
2019-06-07T10:11:10.253Z,6160.00
2019-06-07T10:12:10.257Z,6352.00
2019-06-07T10:13:10.432Z,6368.00
2019-06-07T10:14:10.268Z,6368.00
2019-06-07T10:15:10.270Z,6336.00
2019-06-07T10:16:10.274Z,6236.00
2019-06-07T10:17:10.287Z,6200.00
2019-06-07T10:18:10.286Z,6212.00
2019-06-07T10:19:10.336Z,6316.00
2019-06-07T10:20:10.305Z,6592.00
2019-06-07T10:21:14.791Z,6800.00
2019-06-07T10:22:10.307Z,6924.00
2019-06-07T10:23:10.314Z,7116.00
2019-06-07T10:24:10.319Z,7520.00
2019-06-07T10:25:10.694Z,7964.00
2019-06-07T10:26:10.327Z,7992.00
2019-06-07T10:27:10.337Z,8360.00
2019-06-07T10:28:10.348Z,8176.00
2019-06-07T10:29:10.417Z,8404.00
2019-06-07T10:30:10.524Z,9776.00
2019-06-07T10:31:11.437Z,9640.00
2019-06-07T10:32:11.270Z,8804.00
2019-06-07T10:33:10.520Z,8116.00
2019-06-07T10:34:10.917Z,7868.00
2019-06-07T10:35:15.302Z,7808.00
2019-06-07T10:36:10.736Z,7900.00
2019-06-07T10:37:15.003Z,7912.00
2019-06-07T10:38:10.709Z,8060.00
2019-06-07T10:39:11.404Z,7936.00
2019-06-07T10:40:11.369Z,7680.00
2019-06-07T10:41:11.109Z,7916.00
2019-06-07T10:42:11.630Z,8116.00
2019-06-07T10:43:14.270Z,7284.00
2019-06-07T10:44:11.448Z,7064.00
2019-06-07T10:45:12.278Z,7012.00
2019-06-07T10:46:11.926Z,7100.00
2019-06-07T10:47:12.129Z,7088.00
2019-06-07T10:48:11.712Z,7228.00
2019-06-07T10:49:10.468Z,7292.00
2019-06-07T10:50:10.533Z,6844.00
2019-06-07T10:51:12.425Z,7000.00
2019-06-07T10:52:11.704Z,7140.00
2019-06-07T10:53:10.834Z,7272.00
2019-06-07T10:54:25.812Z,7108.00
2019-06-07T10:55:10.663Z,7128.00
2019-06-07T10:56:11.093Z,7360.00
2019-06-07T10:57:12.909Z,7260.00
2019-06-07T10:58:11.207Z,7144.00
2019-06-07T10:59:11.930Z,7176.00
2019-06-07T11:00:11.683Z,7248.00
2019-06-07T11:01:12.838Z,7136.00
2019-06-07T11:02:11.914Z,7296.00
2019-06-07T11:03:11.815Z,7192.00
2019-06-07T11:04:11.743Z,7072.00
2019-06-07T11:05:12.130Z,7048.00
2019-06-07T11:06:12.006Z,7172.00
2019-06-07T11:07:10.581Z,7476.00
2019-06-07T11:08:11.817Z,7348.00
2019-06-07T11:09:10.594Z,7716.00
2019-06-07T11:10:16.643Z,8056.00
2019-06-07T11:11:10.609Z,7964.00
2019-06-07T11:12:10.886Z,7844.00
2019-06-07T11:13:10.620Z,7580.00
2019-06-07T11:14:10.697Z,8064.00
2019-06-07T11:15:11.086Z,8448.00
2019-06-07T11:16:11.218Z,8012.00
2019-06-07T11:17:11.347Z,7624.00
2019-06-07T11:18:12.452Z,7480.00
2019-06-07T11:19:15.354Z,7588.00
2019-06-07T11:20:12.308Z,7648.00
2019-06-07T11:21:10.678Z,5896.00
2019-06-07T11:22:10.679Z,6560.00
2019-06-07T11:23:10.690Z,7204.00
2019-06-07T11:24:10.692Z,7816.00
2019-06-07T11:25:11.170Z,9688.00
2019-06-07T11:26:10.713Z,9940.00
2019-06-07T11:27:11.690Z,9928.00
2019-06-07T11:28:10.724Z,8768.00
2019-06-07T11:29:10.979Z,7980.00
2019-06-07T11:30:10.734Z,8400.00
2019-06-07T11:31:11.206Z,8616.00
2019-06-07T11:32:10.768Z,8520.00
2019-06-07T11:33:12.329Z,8412.00
2019-06-07T11:34:10.765Z,8932.00
2019-06-07T11:35:11.912Z,8944.00
2019-06-07T11:36:10.774Z,8520.00
2019-06-07T11:37:11.614Z,9016.00
2019-06-07T11:38:10.793Z,8916.00
2019-06-07T11:39:11.162Z,10040.00
2019-06-07T11:40:28.038Z,8168.00
2019-06-07T11:41:11.574Z,8084.00
2019-06-07T11:42:12.037Z,8568.00
2019-06-07T11:43:10.866Z,9132.00
2019-06-07T11:44:11.058Z,10392.00
2019-06-07T11:45:12.825Z,9760.00
2019-06-07T11:46:11.032Z,9904.00
2019-06-07T11:47:12.391Z,11328.00
2019-06-07T11:48:11.385Z,12772.00
2019-06-07T11:49:11.343Z,12980.00
2019-06-07T11:50:11.784Z,11536.00
2019-06-07T11:51:10.972Z,10572.00
2019-06-07T11:52:11.377Z,10560.00
2019-06-07T11:53:10.906Z,10428.00
2019-06-07T11:54:12.045Z,11144.00
2019-06-07T11:55:11.553Z,20128.00
2019-06-07T11:56:11.932Z,73696.00
2019-06-07T11:57:10.967Z,104480.00
2019-06-07T11:58:16.077Z,107136.00
2019-06-07T11:59:11.223Z,109216.00
2019-06-07T12:00:11.585Z,95808.00
2019-06-07T12:01:11.850Z,34336.00
2019-06-07T12:02:11.406Z,106944.00
2019-06-07T12:03:11.596Z,107424.00
2019-06-07T12:04:11.567Z,106784.00
2019-06-07T12:05:14.613Z,104320.00
2019-06-07T12:06:12.041Z,102624.00
2019-06-07T12:07:13.616Z,106080.00
2019-06-07T12:08:11.910Z,107584.00
2019-06-07T12:09:12.341Z,106848.00
2019-06-07T12:10:12.450Z,103104.00
2019-06-07T12:11:12.126Z,101920.00
2019-06-07T12:12:12.511Z,102080.00
2019-06-07T12:13:12.487Z,102176.00
2019-06-07T12:14:11.140Z,100576.00
2019-06-07T12:15:11.184Z,101760.00
2019-06-07T12:16:11.336Z,101952.00
2019-06-07T12:17:11.361Z,101792.00
2019-06-07T12:18:11.310Z,100320.00
2019-06-07T12:19:11.800Z,100640.00
2019-06-07T12:20:12.893Z,95680.00
2019-06-07T12:21:11.543Z,22944.00
2019-06-07T12:22:11.761Z,10676.00
2019-06-07T12:23:12.014Z,96384.00
2019-06-07T12:24:12.141Z,9024.00
2019-06-07T12:25:12.505Z,18112.00
2019-06-07T12:26:12.290Z,90560.00
2019-06-07T12:27:12.768Z,25536.00
2019-06-07T12:28:12.605Z,63424.00
2019-06-07T12:29:12.547Z,91232.00